This is the latest recevied weather packets stored in our database for station/object SP4MAZ-13. If no packets are shown the sender has not sent any weather packets the latest 1 day(s).
| Time | Temp. | Humidity | Pressure | Rain* | Wind** | Luminosity | Snow |
|---|---|---|---|---|---|---|---|
| 1777972879 | 20.56° C | 56% | 2147.4 hPa | - | 0.45 m/s, 12° | - | - |
| 1777972576 | 21.11° C | 49% | 2147.4 hPa | - | 0.45 m/s, 12° | - | - |
| 1777972272 | 21.11° C | 49% | 2147.4 hPa | - | 0.45 m/s, 12° | - | - |
| 1777971969 | 20.56° C | 58% | 2147.4 hPa | - | 0.45 m/s, 12° | - | - |
| 1777971665 | 19.44° C | 56% | 2147.4 hPa | - | 0.45 m/s, 12° | - | - |
| 1777971362 | 19.44° C | 57% | 2147.4 hPa | - | 0.45 m/s, 12° | - | - |
| 1777971059 | 20° C | 55% | 2147.4 hPa | - | 0.45 m/s, 12° | - | - |
| 1777970452 | 18.89° C | 57% | 2147.4 hPa | - | 0.45 m/s, 12° | - | - |
| 1777970148 | 18.33° C | 64% | 2147.4 hPa | - | 0.45 m/s, 12° | - | - |
| 1777969845 | 18.89° C | 58% | 2147.4 hPa | - | 0.45 m/s, 12° | - | - |
| 1777969542 | 18.33° C | 56% | 2147.4 hPa | - | 0.45 m/s, 12° | - | - |
| 1777969238 | 18.89° C | 56% | 2147.4 hPa | - | 0.45 m/s, 12° | - | - |
| 1777968937 | 18.33° C | 56% | 2147.4 hPa | - | 0.45 m/s, 12° | - | - |
| 1777968636 | 17.78° C | 59% | 2147.4 hPa | - | 0.45 m/s, 12° | - | - |
| 1777968332 | 17.22° C | 64% | 2147.4 hPa | - | 0.45 m/s, 12° | - | - |
| 1777968029 | 16.11° C | 68% | 2147.4 hPa | - | 0.45 m/s, 12° | - | - |
| 1777967726 | 17.78° C | 58% | 2147.4 hPa | - | 0.45 m/s, 12° | - | - |
| 1777967422 | 17.78° C | 54% | 2147.4 hPa | - | 0.45 m/s, 12° | - | - |
| 1777967118 | 17.22° C | 58% | 2147.4 hPa | - | 0.45 m/s, 12° | - | - |
| 1777966817 | 17.22° C | 58% | 2147.4 hPa | - | 0.45 m/s, 12° | - | - |
| 1777966514 | 17.22° C | 57% | 2147.4 hPa | - | 0.45 m/s, 12° | - | - |
| 1777966211 | 16.11° C | 64% | 2147.4 hPa | - | 0.45 m/s, 12° | - | - |
| 1777965909 | 16.11° C | 64% | 2147.4 hPa | - | 0.45 m/s, 12° | - | - |
| 1777965606 | 15.56° C | 69% | 2147.4 hPa | - | 0.45 m/s, 12° | - | - |
| 1777965302 | 15° C | 72% | 2147.4 hPa | - | 0.45 m/s, 12° | - | - |
* Rain since midnight (hover to see other rain measurements)
** Current wind speed in m/s (hover to see current wind gust speed)